sensor_id;sensor_type;location;lat;lon;timestamp;pressure;altitude;pressure_sealevel;temperature;humidity
40794;BME280;26502;51.886;15.604;2022-08-03T00:00:52;100842.46;;;19.01;53.37
40794;BME280;26502;51.886;15.604;2022-08-03T00:05:59;100843.33;;;19.02;53.61
40794;BME280;26502;51.886;15.604;2022-08-03T00:11:06;100846.93;;;19.01;53.68
40794;BME280;26502;51.886;15.604;2022-08-03T00:16:13;100846.58;;;18.99;53.88
40794;BME280;26502;51.886;15.604;2022-08-03T00:21:20;100845.01;;;18.92;54.02
40794;BME280;26502;51.886;15.604;2022-08-03T00:26:27;100848.41;;;18.87;54.41
40794;BME280;26502;51.886;15.604;2022-08-03T00:31:36;100844.77;;;18.82;54.36
40794;BME280;26502;51.886;15.604;2022-08-03T00:36:42;100839.98;;;18.80;54.52
40794;BME280;26502;51.886;15.604;2022-08-03T00:41:49;100839.20;;;18.84;54.63
40794;BME280;26502;51.886;15.604;2022-08-03T00:46:56;100838.02;;;18.83;54.74
40794;BME280;26502;51.886;15.604;2022-08-03T00:52:04;100831.73;;;18.86;54.82
40794;BME280;26502;51.886;15.604;2022-08-03T00:57:10;100829.98;;;18.82;54.91
40794;BME280;26502;51.886;15.604;2022-08-03T01:02:18;100832.57;;;18.67;55.28
40794;BME280;26502;51.886;15.604;2022-08-03T01:07:35;100836.14;;;18.59;55.53
40794;BME280;26502;51.886;15.604;2022-08-03T01:12:46;100834.05;;;18.69;55.59
40794;BME280;26502;51.886;15.604;2022-08-03T01:17:58;100828.84;;;18.69;55.53
40794;BME280;26502;51.886;15.604;2022-08-03T01:23:21;100830.30;;;18.49;55.64
40794;BME280;26502;51.886;15.604;2022-08-03T01:28:52;100828.86;;;18.43;55.82
40794;BME280;26502;51.886;15.604;2022-08-03T01:34:08;100830.55;;;18.33;56.15
40794;BME280;26502;51.886;15.604;2022-08-03T01:39:20;100823.41;;;18.27;56.24
40794;BME280;26502;51.886;15.604;2022-08-03T01:44:33;100820.59;;;18.20;56.46
40794;BME280;26502;51.886;15.604;2022-08-03T01:49:45;100814.19;;;18.10;56.62
40794;BME280;26502;51.886;15.604;2022-08-03T01:54:56;100818.89;;;17.98;56.75
40794;BME280;26502;51.886;15.604;2022-08-03T02:00:10;100818.34;;;17.83;57.07
40794;BME280;26502;51.886;15.604;2022-08-03T02:05:23;100824.22;;;17.87;57.29
40794;BME280;26502;51.886;15.604;2022-08-03T02:10:32;100820.23;;;17.84;57.36
40794;BME280;26502;51.886;15.604;2022-08-03T02:15:43;100817.30;;;17.67;57.32
40794;BME280;26502;51.886;15.604;2022-08-03T02:20:55;100809.91;;;17.53;57.71
40794;BME280;26502;51.886;15.604;2022-08-03T02:26:06;100810.88;;;17.45;57.91
40794;BME280;26502;51.886;15.604;2022-08-03T02:31:25;100807.27;;;17.36;57.97
40794;BME280;26502;51.886;15.604;2022-08-03T02:36:37;100798.48;;;17.30;58.29
40794;BME280;26502;51.886;15.604;2022-08-03T02:41:50;100800.48;;;17.33;58.52
40794;BME280;26502;51.886;15.604;2022-08-03T02:47:04;100802.14;;;17.35;58.57
40794;BME280;26502;51.886;15.604;2022-08-03T02:52:15;100805.48;;;17.39;58.50
40794;BME280;26502;51.886;15.604;2022-08-03T02:57:27;100801.48;;;17.28;58.41
40794;BME280;26502;51.886;15.604;2022-08-03T03:02:38;100802.49;;;17.14;58.65
40794;BME280;26502;51.886;15.604;2022-08-03T03:07:50;100805.68;;;17.14;58.88
40794;BME280;26502;51.886;15.604;2022-08-03T03:13:01;100805.35;;;17.14;59.04
40794;BME280;26502;51.886;15.604;2022-08-03T03:18:08;100806.01;;;17.12;59.11
40794;BME280;26502;51.886;15.604;2022-08-03T03:23:16;100808.30;;;17.16;59.21
40794;BME280;26502;51.886;15.604;2022-08-03T03:28:24;100811.02;;;17.15;59.10
40794;BME280;26502;51.886;15.604;2022-08-03T03:33:34;100812.02;;;16.85;58.91
40794;BME280;26502;51.886;15.604;2022-08-03T03:38:41;100817.45;;;16.45;59.33
40794;BME280;26502;51.886;15.604;2022-08-03T03:43:49;100817.90;;;16.49;59.92
40794;BME280;26502;51.886;15.604;2022-08-03T03:48:57;100821.31;;;16.63;59.89
40794;BME280;26502;51.886;15.604;2022-08-03T03:54:05;100821.97;;;16.67;60.04
40794;BME280;26502;51.886;15.604;2022-08-03T03:59:12;100821.66;;;16.76;60.04
40794;BME280;26502;51.886;15.604;2022-08-03T04:04:19;100828.38;;;16.68;59.96
40794;BME280;26502;51.886;15.604;2022-08-03T04:09:59;100826.44;;;16.64;60.23
40794;BME280;26502;51.886;15.604;2022-08-03T04:15:24;100828.90;;;16.64;60.37
40794;BME280;26502;51.886;15.604;2022-08-03T04:20:35;100831.77;;;16.65;60.54
40794;BME280;26502;51.886;15.604;2022-08-03T04:25:44;100835.56;;;16.68;60.56
40794;BME280;26502;51.886;15.604;2022-08-03T04:30:50;100837.41;;;16.67;60.62
40794;BME280;26502;51.886;15.604;2022-08-03T04:35:59;100839.04;;;16.63;60.87
40794;BME280;26502;51.886;15.604;2022-08-03T04:41:08;100843.70;;;16.50;60.96
40794;BME280;26502;51.886;15.604;2022-08-03T04:46:18;100845.97;;;16.44;61.14
40794;BME280;26502;51.886;15.604;2022-08-03T04:51:29;100842.97;;;16.47;61.07
40794;BME280;26502;51.886;15.604;2022-08-03T04:56:40;100847.14;;;16.43;61.48
40794;BME280;26502;51.886;15.604;2022-08-03T05:01:47;100852.98;;;16.50;61.71
40794;BME280;26502;51.886;15.604;2022-08-03T05:06:54;100851.33;;;16.61;61.73
40794;BME280;26502;51.886;15.604;2022-08-03T05:12:02;100851.30;;;16.68;61.82
40794;BME280;26502;51.886;15.604;2022-08-03T05:17:09;100851.67;;;16.88;61.86
40794;BME280;26502;51.886;15.604;2022-08-03T05:22:16;100851.38;;;17.12;62.03
40794;BME280;26502;51.886;15.604;2022-08-03T05:27:24;100852.40;;;17.38;62.00
40794;BME280;26502;51.886;15.604;2022-08-03T05:32:31;100852.04;;;17.69;62.05
40794;BME280;26502;51.886;15.604;2022-08-03T05:37:39;100852.33;;;18.00;62.01
40794;BME280;26502;51.886;15.604;2022-08-03T05:42:47;100856.48;;;18.36;62.11
40794;BME280;26502;51.886;15.604;2022-08-03T05:47:54;100854.02;;;18.72;62.33
40794;BME280;26502;51.886;15.604;2022-08-03T05:53:01;100852.09;;;19.08;62.25
40794;BME280;26502;51.886;15.604;2022-08-03T05:58:08;100853.11;;;19.42;62.21
40794;BME280;26502;51.886;15.604;2022-08-03T06:03:15;100854.08;;;19.84;62.10
40794;BME280;26502;51.886;15.604;2022-08-03T06:08:22;100850.84;;;20.21;61.88
40794;BME280;26502;51.886;15.604;2022-08-03T06:13:30;100849.19;;;20.59;61.57
40794;BME280;26502;51.886;15.604;2022-08-03T06:18:37;100849.45;;;20.98;61.18
40794;BME280;26502;51.886;15.604;2022-08-03T06:23:45;100847.50;;;21.35;60.79
40794;BME280;26502;51.886;15.604;2022-08-03T06:28:52;100844.94;;;21.47;59.77
40794;BME280;26502;51.886;15.604;2022-08-03T06:34:00;100852.64;;;21.51;59.85
40794;BME280;26502;51.886;15.604;2022-08-03T06:39:07;100857.42;;;21.69;59.56
40794;BME280;26502;51.886;15.604;2022-08-03T06:44:14;100861.16;;;21.95;59.29
40794;BME280;26502;51.886;15.604;2022-08-03T06:49:22;100861.52;;;22.26;59.04
40794;BME280;26502;51.886;15.604;2022-08-03T06:54:30;100859.03;;;22.53;58.64
40794;BME280;26502;51.886;15.604;2022-08-03T06:59:36;100860.52;;;22.98;58.64
40794;BME280;26502;51.886;15.604;2022-08-03T07:04:44;100858.54;;;23.20;57.81
40794;BME280;26502;51.886;15.604;2022-08-03T07:09:51;100856.70;;;23.42;57.85
40794;BME280;26502;51.886;15.604;2022-08-03T07:15:01;100854.45;;;23.94;57.41
40794;BME280;26502;51.886;15.604;2022-08-03T07:20:09;100858.95;;;24.20;56.65
40794;BME280;26502;51.886;15.604;2022-08-03T07:25:17;100856.23;;;24.35;56.02
40794;BME280;26502;51.886;15.604;2022-08-03T07:30:24;100856.84;;;24.75;55.53
40794;BME280;26502;51.886;15.604;2022-08-03T07:35:32;100853.55;;;25.26;54.85
40794;BME280;26502;51.886;15.604;2022-08-03T07:40:39;100848.51;;;25.57;54.09
40794;BME280;26502;51.886;15.604;2022-08-03T07:45:47;100850.00;;;25.63;52.92
40794;BME280;26502;51.886;15.604;2022-08-03T07:50:54;100844.42;;;25.76;51.75
40794;BME280;26502;51.886;15.604;2022-08-03T07:56:04;100850.89;;;26.25;51.04
40794;BME280;26502;51.886;15.604;2022-08-03T08:01:11;100846.91;;;26.38;49.22
40794;BME280;26502;51.886;15.604;2022-08-03T08:06:18;100839.70;;;26.50;47.26
40794;BME280;26502;51.886;15.604;2022-08-03T08:11:26;100842.02;;;26.60;45.91
40794;BME280;26502;51.886;15.604;2022-08-03T08:16:33;100841.92;;;26.88;45.58
40794;BME280;26502;51.886;15.604;2022-08-03T08:21:39;100835.48;;;27.25;44.74
40794;BME280;26502;51.886;15.604;2022-08-03T08:26:47;100833.10;;;27.72;44.09
40794;BME280;26502;51.886;15.604;2022-08-03T08:31:54;100832.95;;;27.89;42.68
40794;BME280;26502;51.886;15.604;2022-08-03T08:37:01;100827.16;;;27.80;41.88
40794;BME280;26502;51.886;15.604;2022-08-03T08:42:08;100828.95;;;28.11;41.85
40794;BME280;26502;51.886;15.604;2022-08-03T08:47:16;100824.61;;;28.29;40.69
40794;BME280;26502;51.886;15.604;2022-08-03T08:52:26;100821.78;;;28.46;40.19
40794;BME280;26502;51.886;15.604;2022-08-03T08:57:37;100825.91;;;28.53;39.52
40794;BME280;26502;51.886;15.604;2022-08-03T09:02:46;100820.76;;;28.95;38.84
40794;BME280;26502;51.886;15.604;2022-08-03T09:07:54;100821.40;;;29.38;39.04
40794;BME280;26502;51.886;15.604;2022-08-03T09:13:01;100819.20;;;29.63;38.38
40794;BME280;26502;51.886;15.604;2022-08-03T09:18:09;100816.64;;;29.63;37.81
40794;BME280;26502;51.886;15.604;2022-08-03T09:23:16;100812.73;;;29.42;37.37
40794;BME280;26502;51.886;15.604;2022-08-03T09:28:25;100814.52;;;29.70;37.50
40794;BME280;26502;51.886;15.604;2022-08-03T09:33:47;100807.95;;;29.65;36.62
40794;BME280;26502;51.886;15.604;2022-08-03T09:39:04;100802.53;;;29.61;36.47
40794;BME280;26502;51.886;15.604;2022-08-03T09:44:11;100799.87;;;29.89;36.42
40794;BME280;26502;51.886;15.604;2022-08-03T09:49:19;100803.45;;;30.04;36.14
40794;BME280;26502;51.886;15.604;2022-08-03T09:54:30;100795.30;;;30.39;36.34
40794;BME280;26502;51.886;15.604;2022-08-03T09:59:38;100796.36;;;30.73;35.90
40794;BME280;26502;51.886;15.604;2022-08-03T10:04:49;100798.83;;;30.86;35.85
40794;BME280;26502;51.886;15.604;2022-08-03T10:09:58;100792.60;;;30.94;35.11
40794;BME280;26502;51.886;15.604;2022-08-03T10:15:08;100785.98;;;30.85;34.63
40794;BME280;26502;51.886;15.604;2022-08-03T10:20:16;100783.98;;;31.20;35.00
40794;BME280;26502;51.886;15.604;2022-08-03T10:25:23;100785.70;;;31.50;34.27
40794;BME280;26502;51.886;15.604;2022-08-03T10:30:31;100782.05;;;31.19;33.56
40794;BME280;26502;51.886;15.604;2022-08-03T10:35:40;100778.08;;;31.10;33.83
40794;BME280;26502;51.886;15.604;2022-08-03T10:40:52;100782.06;;;30.71;33.69
40794;BME280;26502;51.886;15.604;2022-08-03T10:46:01;100778.04;;;30.65;33.60
40794;BME280;26502;51.886;15.604;2022-08-03T10:51:10;100772.84;;;30.80;33.83
40794;BME280;26502;51.886;15.604;2022-08-03T10:56:38;100768.11;;;31.35;33.33
40794;BME280;26502;51.886;15.604;2022-08-03T11:02:02;100764.84;;;31.75;33.01
40794;BME280;26502;51.886;15.604;2022-08-03T11:07:23;100764.05;;;31.65;32.78
40794;BME280;26502;51.886;15.604;2022-08-03T11:12:32;100747.69;;;31.97;33.04
40794;BME280;26502;51.886;15.604;2022-08-03T11:17:39;100741.80;;;32.42;32.49
40794;BME280;26502;51.886;15.604;2022-08-03T11:23:06;100743.11;;;32.90;32.10
40794;BME280;26502;51.886;15.604;2022-08-03T11:28:29;100740.88;;;33.32;31.46
40794;BME280;26502;51.886;15.604;2022-08-03T11:33:38;100744.92;;;34.01;31.07
40794;BME280;26502;51.886;15.604;2022-08-03T11:39:14;100741.08;;;34.04;30.02
40794;BME280;26502;51.886;15.604;2022-08-03T11:44:40;100743.69;;;33.86;29.01
40794;BME280;26502;51.886;15.604;2022-08-03T11:49:49;100737.98;;;33.60;29.03
40794;BME280;26502;51.886;15.604;2022-08-03T11:54:57;100735.87;;;33.78;29.08
40794;BME280;26502;51.886;15.604;2022-08-03T12:00:10;100729.05;;;34.12;29.28
40794;BME280;26502;51.886;15.604;2022-08-03T12:05:39;100728.60;;;33.72;28.60
40794;BME280;26502;51.886;15.604;2022-08-03T12:10:51;100730.73;;;33.11;27.93
40794;BME280;26502;51.886;15.604;2022-08-03T12:15:59;100724.47;;;33.09;28.36
40794;BME280;26502;51.886;15.604;2022-08-03T12:21:07;100726.14;;;32.93;28.51
40794;BME280;26502;51.886;15.604;2022-08-03T12:26:15;100712.98;;;32.99;28.69
40794;BME280;26502;51.886;15.604;2022-08-03T12:31:25;100712.04;;;33.79;27.56
40794;BME280;26502;51.886;15.604;2022-08-03T12:36:34;100707.72;;;34.07;27.34
40794;BME280;26502;51.886;15.604;2022-08-03T12:41:42;100704.23;;;34.64;26.99
40794;BME280;26502;51.886;15.604;2022-08-03T12:46:58;100698.84;;;34.93;27.02
40794;BME280;26502;51.886;15.604;2022-08-03T12:52:05;100698.02;;;35.48;26.73
40794;BME280;26502;51.886;15.604;2022-08-03T12:57:13;100689.25;;;35.59;26.35
40794;BME280;26502;51.886;15.604;2022-08-03T13:02:23;100691.25;;;35.61;25.95
40794;BME280;26502;51.886;15.604;2022-08-03T13:07:40;100689.11;;;35.16;25.09
40794;BME280;26502;51.886;15.604;2022-08-03T13:12:50;100683.84;;;35.50;25.42
40794;BME280;26502;51.886;15.604;2022-08-03T13:17:58;100685.89;;;35.54;25.25
40794;BME280;26502;51.886;15.604;2022-08-03T13:23:06;100687.06;;;35.64;25.12
40794;BME280;26502;51.886;15.604;2022-08-03T13:28:14;100686.19;;;36.01;25.21
40794;BME280;26502;51.886;15.604;2022-08-03T13:33:21;100680.55;;;36.59;24.70
40794;BME280;26502;51.886;15.604;2022-08-03T13:38:29;100677.31;;;36.48;24.03
40794;BME280;26502;51.886;15.604;2022-08-03T13:43:46;100670.05;;;36.04;24.31
40794;BME280;26502;51.886;15.604;2022-08-03T13:48:53;100669.33;;;35.67;24.50
40794;BME280;26502;51.886;15.604;2022-08-03T13:54:09;100668.80;;;35.20;24.26
40794;BME280;26502;51.886;15.604;2022-08-03T13:59:16;100664.95;;;34.78;24.56
40794;BME280;26502;51.886;15.604;2022-08-03T14:04:24;100662.14;;;35.27;24.51
40794;BME280;26502;51.886;15.604;2022-08-03T14:09:31;100657.76;;;35.95;23.77
40794;BME280;26502;51.886;15.604;2022-08-03T14:14:38;100646.98;;;35.94;23.32
40794;BME280;26502;51.886;15.604;2022-08-03T14:19:46;100646.40;;;36.33;23.62
40794;BME280;26502;51.886;15.604;2022-08-03T14:24:53;100644.84;;;36.37;23.12
40794;BME280;26502;51.886;15.604;2022-08-03T14:30:00;100642.80;;;35.74;23.39
40794;BME280;26502;51.886;15.604;2022-08-03T14:35:08;100648.70;;;35.31;23.18
40794;BME280;26502;51.886;15.604;2022-08-03T14:40:16;100645.04;;;34.80;23.46
40794;BME280;26502;51.886;15.604;2022-08-03T14:45:23;100644.02;;;34.50;23.92
40794;BME280;26502;51.886;15.604;2022-08-03T14:50:31;100634.62;;;34.65;24.33
40794;BME280;26502;51.886;15.604;2022-08-03T14:55:40;100639.14;;;34.56;24.49
40794;BME280;26502;51.886;15.604;2022-08-03T15:00:48;100635.85;;;34.34;24.78
40794;BME280;26502;51.886;15.604;2022-08-03T15:05:55;100631.20;;;34.23;24.87
40794;BME280;26502;51.886;15.604;2022-08-03T15:11:03;100627.34;;;34.45;24.74
40794;BME280;26502;51.886;15.604;2022-08-03T15:16:10;100620.98;;;34.59;24.68
40794;BME280;26502;51.886;15.604;2022-08-03T15:21:17;100623.00;;;34.34;24.70
40794;BME280;26502;51.886;15.604;2022-08-03T15:26:24;100615.64;;;34.25;24.91
40794;BME280;26502;51.886;15.604;2022-08-03T15:31:32;100614.08;;;34.37;25.32
40794;BME280;26502;51.886;15.604;2022-08-03T15:36:39;100609.16;;;34.73;25.40
40794;BME280;26502;51.886;15.604;2022-08-03T15:41:46;100608.02;;;35.14;24.55
40794;BME280;26502;51.886;15.604;2022-08-03T15:46:54;100608.36;;;34.67;24.50
40794;BME280;26502;51.886;15.604;2022-08-03T15:52:02;100608.53;;;35.11;24.70
40794;BME280;26502;51.886;15.604;2022-08-03T15:57:09;100606.56;;;35.63;24.37
40794;BME280;26502;51.886;15.604;2022-08-03T16:02:17;100603.88;;;35.77;24.41
40794;BME280;26502;51.886;15.604;2022-08-03T16:07:24;100605.91;;;35.41;23.68
40794;BME280;26502;51.886;15.604;2022-08-03T16:12:45;100603.77;;;34.83;23.90
40794;BME280;26502;51.886;15.604;2022-08-03T16:17:53;100600.71;;;34.77;24.50
40794;BME280;26502;51.886;15.604;2022-08-03T16:23:00;100598.77;;;35.31;24.60
40794;BME280;26502;51.886;15.604;2022-08-03T16:28:09;100592.10;;;35.50;24.26
40794;BME280;26502;51.886;15.604;2022-08-03T16:33:18;100591.79;;;35.31;24.29
40794;BME280;26502;51.886;15.604;2022-08-03T16:38:26;100590.93;;;35.25;24.21
40794;BME280;26502;51.886;15.604;2022-08-03T16:43:34;100587.83;;;35.20;24.51
40794;BME280;26502;51.886;15.604;2022-08-03T16:48:41;100589.11;;;35.00;24.34
40794;BME280;26502;51.886;15.604;2022-08-03T16:53:48;100591.50;;;34.65;24.23
40794;BME280;26502;51.886;15.604;2022-08-03T16:58:57;100592.27;;;34.37;24.76
40794;BME280;26502;51.886;15.604;2022-08-03T17:04:05;100593.48;;;34.17;24.98
40794;BME280;26502;51.886;15.604;2022-08-03T17:09:16;100597.66;;;33.84;25.55
40794;BME280;26502;51.886;15.604;2022-08-03T17:14:24;100594.09;;;33.63;26.47
40794;BME280;26502;51.886;15.604;2022-08-03T17:19:32;100601.55;;;33.39;26.98
40794;BME280;26502;51.886;15.604;2022-08-03T17:24:43;100606.98;;;33.22;27.84
40794;BME280;26502;51.886;15.604;2022-08-03T17:29:55;100608.91;;;33.05;28.54
40794;BME280;26502;51.886;15.604;2022-08-03T17:35:07;100609.73;;;32.85;28.60
40794;BME280;26502;51.886;15.604;2022-08-03T17:40:16;100611.38;;;32.57;29.68
40794;BME280;26502;51.886;15.604;2022-08-03T17:45:24;100615.53;;;32.40;30.03
40794;BME280;26502;51.886;15.604;2022-08-03T17:50:36;100615.38;;;32.17;30.80
40794;BME280;26502;51.886;15.604;2022-08-03T17:55:51;100619.33;;;31.86;31.16
40794;BME280;26502;51.886;15.604;2022-08-03T18:01:01;100623.16;;;31.65;31.35
40794;BME280;26502;51.886;15.604;2022-08-03T18:06:26;100622.55;;;31.34;31.75
40794;BME280;26502;51.886;15.604;2022-08-03T18:11:35;100622.16;;;30.98;32.29
40794;BME280;26502;51.886;15.604;2022-08-03T18:16:54;100625.45;;;30.66;33.16
40794;BME280;26502;51.886;15.604;2022-08-03T18:22:00;100627.77;;;30.44;33.56
40794;BME280;26502;51.886;15.604;2022-08-03T18:27:08;100633.80;;;30.24;33.86
40794;BME280;26502;51.886;15.604;2022-08-03T18:32:16;100634.13;;;30.02;34.52
40794;BME280;26502;51.886;15.604;2022-08-03T18:37:24;100639.30;;;30.02;34.75
40794;BME280;26502;51.886;15.604;2022-08-03T18:42:33;100645.14;;;29.89;34.86
40794;BME280;26502;51.886;15.604;2022-08-03T18:47:58;100643.66;;;29.67;35.38
40794;BME280;26502;51.886;15.604;2022-08-03T18:53:16;100645.80;;;29.61;35.58
40794;BME280;26502;51.886;15.604;2022-08-03T18:58:32;100647.29;;;29.41;35.74
40794;BME280;26502;51.886;15.604;2022-08-03T19:03:44;100652.64;;;29.26;36.13
40794;BME280;26502;51.886;15.604;2022-08-03T19:08:59;100652.88;;;29.09;36.50
40794;BME280;26502;51.886;15.604;2022-08-03T19:14:10;100652.64;;;28.94;36.80
40794;BME280;26502;51.886;15.604;2022-08-03T19:19:21;100657.36;;;28.77;36.97
40794;BME280;26502;51.886;15.604;2022-08-03T19:24:30;100657.52;;;28.58;37.03
40794;BME280;26502;51.886;15.604;2022-08-03T19:29:38;100658.36;;;28.34;37.25
40794;BME280;26502;51.886;15.604;2022-08-03T19:34:51;100657.73;;;28.09;38.06
40794;BME280;26502;51.886;15.604;2022-08-03T19:39:59;100652.17;;;27.90;38.28
40794;BME280;26502;51.886;15.604;2022-08-03T19:45:09;100659.10;;;27.68;38.44
40794;BME280;26502;51.886;15.604;2022-08-03T19:50:19;100660.41;;;27.47;38.81
40794;BME280;26502;51.886;15.604;2022-08-03T19:55:28;100659.06;;;27.31;39.22
40794;BME280;26502;51.886;15.604;2022-08-03T20:00:38;100665.48;;;27.08;39.48
40794;BME280;26502;51.886;15.604;2022-08-03T20:05:49;100661.98;;;26.81;39.99
40794;BME280;26502;51.886;15.604;2022-08-03T20:10:57;100659.36;;;26.49;40.42
40794;BME280;26502;51.886;15.604;2022-08-03T20:16:05;100663.90;;;26.38;40.75
40794;BME280;26502;51.886;15.604;2022-08-03T20:21:11;100668.98;;;26.24;41.06
40794;BME280;26502;51.886;15.604;2022-08-03T20:26:20;100672.50;;;26.06;41.52
40794;BME280;26502;51.886;15.604;2022-08-03T20:31:29;100669.91;;;25.97;41.84
40794;BME280;26502;51.886;15.604;2022-08-03T20:36:37;100674.14;;;25.84;42.05
40794;BME280;26502;51.886;15.604;2022-08-03T20:41:47;100676.01;;;25.70;42.35
40794;BME280;26502;51.886;15.604;2022-08-03T20:46:54;100678.20;;;25.57;42.63
40794;BME280;26502;51.886;15.604;2022-08-03T20:52:02;100683.15;;;25.37;42.91
40794;BME280;26502;51.886;15.604;2022-08-03T20:57:07;100688.04;;;25.27;43.13
40794;BME280;26502;51.886;15.604;2022-08-03T21:02:15;100687.31;;;25.08;43.63
40794;BME280;26502;51.886;15.604;2022-08-03T21:07:23;100686.83;;;24.95;43.89
40794;BME280;26502;51.886;15.604;2022-08-03T21:12:49;100689.05;;;24.85;44.10
40794;BME280;26502;51.886;15.604;2022-08-03T21:17:58;100688.19;;;24.67;44.43
40794;BME280;26502;51.886;15.604;2022-08-03T21:23:06;100686.98;;;24.58;44.62
40794;BME280;26502;51.886;15.604;2022-08-03T21:28:17;100683.95;;;24.49;44.92
40794;BME280;26502;51.886;15.604;2022-08-03T21:33:27;100685.67;;;24.40;45.05
40794;BME280;26502;51.886;15.604;2022-08-03T21:38:35;100687.36;;;24.32;45.19
40794;BME280;26502;51.886;15.604;2022-08-03T21:43:42;100686.88;;;24.19;45.32
40794;BME280;26502;51.886;15.604;2022-08-03T21:48:55;100685.40;;;24.09;45.71
40794;BME280;26502;51.886;15.604;2022-08-03T21:54:02;100684.04;;;23.91;45.88
40794;BME280;26502;51.886;15.604;2022-08-03T21:59:16;100687.57;;;23.80;46.07
40794;BME280;26502;51.886;15.604;2022-08-03T22:04:24;100689.98;;;23.75;46.19
40794;BME280;26502;51.886;15.604;2022-08-03T22:09:32;100690.04;;;23.75;46.23
40794;BME280;26502;51.886;15.604;2022-08-03T22:14:40;100692.77;;;23.66;46.42
40794;BME280;26502;51.886;15.604;2022-08-03T22:19:50;100691.53;;;23.55;46.51
40794;BME280;26502;51.886;15.604;2022-08-03T22:25:04;100696.59;;;23.54;46.67
40794;BME280;26502;51.886;15.604;2022-08-03T22:30:14;100698.13;;;23.44;46.76
40794;BME280;26502;51.886;15.604;2022-08-03T22:35:24;100697.89;;;23.34;46.93
40794;BME280;26502;51.886;15.604;2022-08-03T22:40:32;100698.73;;;23.26;47.21
40794;BME280;26502;51.886;15.604;2022-08-03T22:45:43;100698.93;;;23.20;47.25
40794;BME280;26502;51.886;15.604;2022-08-03T22:50:51;100700.22;;;23.09;47.61
40794;BME280;26502;51.886;15.604;2022-08-03T22:55:59;100700.79;;;22.95;47.72
40794;BME280;26502;51.886;15.604;2022-08-03T23:01:09;100703.16;;;22.84;48.07
40794;BME280;26502;51.886;15.604;2022-08-03T23:06:19;100700.64;;;22.78;48.23
40794;BME280;26502;51.886;15.604;2022-08-03T23:11:28;100697.47;;;22.70;48.23
40794;BME280;26502;51.886;15.604;2022-08-03T23:16:37;100696.95;;;22.63;48.38
40794;BME280;26502;51.886;15.604;2022-08-03T23:21:44;100698.88;;;22.51;48.68
40794;BME280;26502;51.886;15.604;2022-08-03T23:26:51;100704.40;;;22.40;48.99
40794;BME280;26502;51.886;15.604;2022-08-03T23:32:04;100705.75;;;22.30;49.28
40794;BME280;26502;51.886;15.604;2022-08-03T23:37:15;100701.98;;;22.23;49.49
40794;BME280;26502;51.886;15.604;2022-08-03T23:42:22;100702.77;;;22.20;49.35
40794;BME280;26502;51.886;15.604;2022-08-03T23:47:29;100699.01;;;22.13;49.35
40794;BME280;26502;51.886;15.604;2022-08-03T23:52:42;100697.95;;;22.08;49.58
40794;BME280;26502;51.886;15.604;2022-08-03T23:58:03;100699.08;;;22.05;49.76
